createdAt,value
2023-12-28T00:01:56.109Z,9.93
2023-12-28T00:04:26.237Z,17.27
2023-12-28T00:06:54.804Z,10.40
2023-12-28T00:09:23.596Z,9.80
2023-12-28T00:11:52.134Z,8.43
2023-12-28T00:14:20.787Z,10.93
2023-12-28T00:16:49.375Z,9.47
2023-12-28T00:19:18.052Z,12.13
2023-12-28T00:21:47.937Z,11.43
2023-12-28T00:24:17.658Z,12.13
2023-12-28T00:26:46.228Z,12.00
2023-12-28T00:29:14.816Z,9.13
2023-12-28T00:31:43.874Z,10.27
2023-12-28T00:34:12.689Z,9.90
2023-12-28T00:36:41.281Z,12.50
2023-12-28T00:39:12.023Z,10.17
2023-12-28T00:41:40.598Z,9.50
2023-12-28T00:44:10.832Z,8.07
2023-12-28T00:46:39.766Z,9.93
2023-12-28T00:49:09.656Z,8.43
2023-12-28T00:51:38.373Z,10.20
2023-12-28T00:54:07.099Z,12.73
2023-12-28T00:56:37.014Z,17.17
2023-12-28T00:59:05.557Z,12.83
2023-12-28T01:01:34.048Z,10.83
2023-12-28T01:04:02.698Z,13.10
2023-12-28T01:06:31.344Z,8.40
2023-12-28T01:09:00.020Z,8.40
2023-12-28T01:11:28.522Z,9.60
2023-12-28T01:14:00.398Z,7.80
2023-12-28T01:16:29.008Z,11.37
2023-12-28T01:18:57.720Z,11.20
2023-12-28T01:21:26.847Z,8.17
2023-12-28T01:23:55.579Z,10.20
2023-12-28T01:26:24.149Z,12.43
2023-12-28T01:28:52.769Z,10.23
2023-12-28T01:31:22.743Z,12.20
2023-12-28T01:33:51.489Z,8.00
2023-12-28T01:36:20.510Z,10.70
2023-12-28T01:38:49.960Z,10.23
2023-12-28T01:41:18.671Z,13.43
2023-12-28T01:43:47.305Z,15.87
2023-12-28T01:46:18.698Z,13.93
2023-12-28T01:48:51.093Z,13.07
2023-12-28T01:51:22.639Z,11.93
2023-12-28T01:53:53.914Z,12.13
2023-12-28T01:56:23.166Z,10.10
2023-12-28T01:58:53.409Z,12.37
2023-12-28T02:01:22.693Z,15.77
2023-12-28T02:03:52.956Z,11.90
2023-12-28T02:06:25.810Z,15.37
2023-12-28T02:08:54.488Z,12.77
2023-12-28T02:11:23.158Z,17.03
2023-12-28T02:13:51.803Z,11.33
2023-12-28T02:16:27.597Z,15.73
2023-12-28T02:19:01.551Z,15.43
2023-12-28T02:21:31.355Z,17.37
2023-12-28T02:23:59.955Z,11.90
2023-12-28T02:26:29.755Z,13.77
2023-12-28T02:29:06.456Z,11.70
2023-12-28T02:31:45.013Z,17.30
2023-12-28T02:34:18.770Z,20.03
2023-12-28T02:36:50.455Z,19.63
2023-12-28T02:39:20.653Z,15.80
2023-12-28T02:41:49.177Z,17.30
2023-12-28T02:44:20.486Z,16.17
2023-12-28T02:46:49.072Z,18.20
2023-12-28T02:49:17.830Z,14.23
2023-12-28T02:51:46.584Z,16.93
2023-12-28T02:54:15.353Z,19.20
2023-12-28T02:56:43.892Z,17.60
2023-12-28T02:59:13.095Z,13.83
2023-12-28T03:01:43.198Z,15.90
2023-12-28T03:04:11.806Z,14.53
2023-12-28T03:06:42.208Z,13.93
2023-12-28T03:09:10.749Z,14.80
2023-12-28T03:11:39.291Z,19.20
2023-12-28T03:14:07.728Z,15.00
2023-12-28T03:16:36.287Z,19.20
2023-12-28T03:19:06.221Z,15.53
2023-12-28T03:21:35.005Z,13.63
2023-12-28T03:24:04.003Z,16.60
2023-12-28T03:26:32.730Z,19.00
2023-12-28T03:29:01.234Z,13.27
2023-12-28T03:31:29.857Z,15.10
2023-12-28T03:33:58.695Z,12.80
2023-12-28T03:36:28.769Z,12.57
2023-12-28T03:38:57.280Z,12.23
2023-12-28T03:41:25.888Z,14.60
2023-12-28T03:43:54.453Z,14.43
2023-12-28T03:46:23.108Z,12.73
2023-12-28T03:48:51.801Z,15.70
2023-12-28T03:51:20.501Z,16.60
2023-12-28T03:53:50.657Z,13.17
2023-12-28T03:56:24.380Z,10.47
2023-12-28T03:58:56.948Z,12.07
2023-12-28T04:01:25.956Z,13.93
2023-12-28T04:03:54.567Z,12.70
2023-12-28T04:06:23.293Z,13.70
2023-12-28T04:08:53.174Z,13.23
2023-12-28T04:11:21.763Z,12.30
2023-12-28T04:13:50.184Z,17.53
2023-12-28T04:16:19.134Z,14.33
2023-12-28T04:18:47.243Z,14.90
2023-12-28T04:21:16.408Z,14.20
2023-12-28T04:23:45.038Z,14.90
2023-12-28T04:26:15.082Z,14.33
2023-12-28T04:28:43.673Z,18.33
2023-12-28T04:31:12.411Z,15.27
2023-12-28T04:33:41.159Z,14.10
2023-12-28T04:36:10.870Z,24.13
2023-12-28T04:38:40.096Z,13.00
2023-12-28T04:41:08.855Z,14.67
2023-12-28T04:43:38.785Z,16.77
2023-12-28T04:46:06.720Z,16.30
2023-12-28T04:48:35.775Z,12.97
2023-12-28T04:51:07.054Z,11.30
2023-12-28T04:53:36.141Z,12.40
2023-12-28T04:56:04.918Z,12.13
2023-12-28T04:58:33.402Z,13.00
2023-12-28T05:01:05.482Z,13.87
2023-12-28T05:03:34.159Z,15.10
2023-12-28T05:06:04.631Z,14.77
2023-12-28T05:08:33.070Z,12.93
2023-12-28T05:11:02.373Z,16.03
2023-12-28T05:13:30.992Z,13.17
2023-12-28T05:16:00.506Z,15.43
2023-12-28T05:18:30.945Z,14.10
2023-12-28T05:20:59.492Z,14.03
2023-12-28T05:23:27.989Z,15.87
2023-12-28T05:25:56.679Z,13.50
2023-12-28T05:28:25.213Z,14.60
2023-12-28T05:30:53.973Z,16.97
2023-12-28T05:33:23.856Z,15.80
2023-12-28T05:35:53.840Z,17.40
2023-12-28T05:38:22.461Z,14.53
2023-12-28T05:40:50.898Z,15.60
2023-12-28T05:43:19.473Z,17.20
2023-12-28T05:45:48.016Z,15.47
2023-12-28T05:48:16.770Z,16.07
2023-12-28T05:50:45.416Z,15.00
2023-12-28T05:53:15.982Z,15.10
2023-12-28T05:55:44.507Z,15.20
2023-12-28T05:58:13.125Z,16.70
2023-12-28T06:00:41.649Z,18.23
2023-12-28T06:03:10.233Z,13.20
2023-12-28T06:05:38.820Z,16.10
2023-12-28T06:08:07.619Z,15.37
2023-12-28T06:10:37.616Z,18.03
2023-12-28T06:13:07.558Z,22.07
2023-12-28T06:15:36.064Z,22.47
2023-12-28T06:18:05.805Z,20.43
2023-12-28T06:20:34.957Z,20.10
2023-12-28T06:23:03.994Z,21.80
2023-12-28T06:25:32.490Z,19.57
2023-12-28T06:28:02.613Z,26.53
2023-12-28T06:30:31.495Z,23.23
2023-12-28T06:33:00.103Z,25.70
2023-12-28T06:35:28.655Z,29.73
2023-12-28T06:37:57.526Z,23.23
2023-12-28T06:40:26.167Z,28.60
2023-12-28T06:42:54.810Z,18.70
2023-12-28T06:45:29.247Z,21.47
2023-12-28T06:47:58.653Z,24.40
2023-12-28T06:50:27.465Z,25.40
2023-12-28T06:52:56.007Z,24.87
2023-12-28T06:55:24.467Z,23.83
2023-12-28T06:57:53.022Z,28.13
2023-12-28T07:00:22.016Z,28.97
2023-12-28T07:02:51.986Z,30.80
2023-12-28T07:05:20.535Z,30.10
2023-12-28T07:07:49.190Z,31.00
2023-12-28T07:10:17.834Z,26.20
2023-12-28T07:12:46.431Z,28.87
2023-12-28T07:15:16.111Z,28.67
2023-12-28T07:17:44.972Z,24.17
2023-12-28T07:20:15.131Z,26.00
2023-12-28T07:22:43.757Z,26.80
2023-12-28T07:25:12.852Z,25.60
2023-12-28T07:27:42.574Z,19.37
2023-12-28T07:30:11.962Z,18.07
2023-12-28T07:32:40.566Z,16.30
2023-12-28T07:35:09.577Z,14.87
2023-12-28T07:37:39.712Z,11.50
2023-12-28T07:40:09.502Z,12.90
2023-12-28T07:42:38.098Z,14.20
2023-12-28T07:45:07.309Z,11.83
2023-12-28T07:47:36.152Z,24.03
2023-12-28T07:50:05.717Z,13.63
2023-12-28T07:52:34.243Z,16.57
2023-12-28T07:55:04.155Z,20.37
2023-12-28T07:57:32.369Z,18.40
2023-12-28T08:00:01.015Z,14.63
2023-12-28T08:02:29.781Z,14.37
2023-12-28T08:04:58.353Z,15.63
2023-12-28T08:07:26.960Z,15.70
2023-12-28T08:09:55.861Z,19.93
2023-12-28T08:12:28.840Z,16.93
2023-12-28T08:14:57.824Z,16.47
2023-12-28T08:17:26.403Z,16.80
2023-12-28T08:19:55.054Z,18.23
2023-12-28T08:22:23.974Z,16.33
2023-12-28T08:24:52.714Z,17.83
2023-12-28T08:27:25.409Z,15.47
2023-12-28T08:29:53.944Z,15.10
2023-12-28T08:32:22.602Z,18.37
2023-12-28T08:34:52.069Z,18.37
2023-12-28T08:37:20.765Z,21.03
2023-12-28T08:39:49.341Z,19.37
2023-12-28T08:42:17.942Z,16.47
2023-12-28T08:44:49.641Z,25.53
2023-12-28T08:47:18.757Z,17.13
2023-12-28T08:49:47.425Z,17.40
2023-12-28T08:52:16.162Z,18.47
2023-12-28T08:54:44.880Z,16.40
2023-12-28T08:57:13.500Z,20.73
2023-12-28T08:59:42.432Z,16.93
2023-12-28T09:02:12.752Z,18.30
2023-12-28T09:04:41.230Z,20.57
2023-12-28T09:07:10.903Z,19.10
2023-12-28T09:09:39.509Z,20.53
2023-12-28T09:12:08.567Z,22.43
2023-12-28T09:14:37.230Z,26.93
2023-12-28T09:17:06.200Z,35.33
2023-12-28T09:19:36.232Z,36.07
2023-12-28T09:22:06.556Z,32.50
2023-12-28T09:24:35.116Z,40.80
2023-12-28T09:27:03.709Z,35.10
2023-12-28T09:29:32.240Z,42.10
2023-12-28T09:32:00.784Z,41.63
2023-12-28T09:34:29.336Z,38.67
2023-12-28T09:36:59.520Z,35.63
2023-12-28T09:39:28.197Z,33.47
2023-12-28T09:42:01.385Z,43.80
2023-12-28T09:44:31.191Z,38.43
2023-12-28T09:47:00.945Z,34.93
2023-12-28T09:49:30.483Z,38.23
2023-12-28T09:52:00.479Z,37.07
2023-12-28T09:54:29.053Z,41.23
2023-12-28T09:56:57.963Z,47.83
2023-12-28T09:59:28.136Z,55.10
2023-12-28T10:01:57.984Z,61.33
2023-12-28T10:04:26.993Z,48.20
2023-12-28T10:06:55.750Z,51.73
2023-12-28T10:09:28.111Z,46.13
2023-12-28T10:11:57.753Z,48.37
2023-12-28T10:14:26.431Z,45.00
2023-12-28T10:16:54.983Z,48.93
2023-12-28T10:19:25.201Z,46.20
2023-12-28T10:21:54.036Z,44.90
2023-12-28T10:24:22.783Z,46.73
2023-12-28T10:26:52.798Z,47.47
2023-12-28T10:29:21.389Z,50.77
2023-12-28T10:31:52.651Z,55.63
2023-12-28T10:34:21.696Z,52.57
2023-12-28T10:36:52.518Z,51.40
2023-12-28T10:39:23.158Z,61.73
2023-12-28T10:41:57.567Z,58.00
2023-12-28T10:44:30.216Z,58.80
2023-12-28T10:47:03.472Z,53.23
2023-12-28T10:49:35.745Z,49.73
2023-12-28T10:52:08.782Z,48.03
2023-12-28T10:54:49.458Z,43.23
2023-12-28T10:57:28.767Z,50.20
2023-12-28T11:00:05.383Z,47.60
2023-12-28T11:02:41.137Z,51.90
2023-12-28T11:05:10.380Z,56.43
2023-12-28T11:07:40.572Z,50.20
2023-12-28T11:10:11.686Z,49.77
2023-12-28T11:12:42.206Z,42.77
2023-12-28T11:15:13.074Z,47.10
2023-12-28T11:17:42.788Z,49.53
2023-12-28T11:20:12.481Z,45.50
2023-12-28T11:22:42.177Z,38.90
2023-12-28T11:25:17.896Z,45.53
2023-12-28T11:27:48.617Z,42.43
2023-12-28T11:30:17.481Z,38.57
2023-12-28T11:32:46.680Z,41.30
2023-12-28T11:35:16.336Z,35.93
2023-12-28T11:37:48.745Z,36.80
2023-12-28T11:40:21.208Z,42.87
2023-12-28T11:42:55.775Z,43.00
2023-12-28T11:45:26.448Z,37.40
2023-12-28T11:48:02.280Z,41.30
2023-12-28T11:50:30.984Z,43.37
2023-12-28T11:53:00.078Z,44.90
2023-12-28T11:55:28.798Z,54.70
2023-12-28T11:57:58.677Z,53.17
2023-12-28T12:00:27.775Z,62.37
2023-12-28T12:02:57.287Z,48.83
2023-12-28T12:05:26.330Z,54.10
2023-12-28T12:07:54.903Z,60.70
2023-12-28T12:10:23.841Z,56.13
2023-12-28T12:12:54.686Z,55.03
2023-12-28T12:15:24.833Z,54.73
2023-12-28T12:17:53.569Z,56.07
2023-12-28T12:20:23.012Z,59.47
2023-12-28T12:22:51.697Z,59.50
2023-12-28T12:25:21.102Z,53.00
2023-12-28T12:27:49.862Z,49.07
2023-12-28T12:30:18.616Z,61.07
2023-12-28T12:32:48.603Z,56.90
2023-12-28T12:35:18.941Z,52.80
2023-12-28T12:37:50.430Z,55.10
2023-12-28T12:40:21.867Z,55.77
2023-12-28T12:42:57.179Z,55.27
2023-12-28T12:45:26.706Z,49.40
2023-12-28T12:47:56.655Z,54.50
2023-12-28T12:50:25.230Z,55.90
2023-12-28T12:52:53.762Z,51.37
2023-12-28T12:55:23.151Z,48.43
2023-12-28T12:57:52.718Z,52.00
2023-12-28T13:00:22.549Z,53.40
2023-12-28T13:02:52.208Z,51.13
2023-12-28T13:05:22.426Z,52.00
2023-12-28T13:07:50.898Z,44.80
2023-12-28T13:10:19.494Z,54.00
2023-12-28T13:12:48.040Z,53.67
2023-12-28T13:15:16.733Z,48.10
2023-12-28T13:17:45.673Z,49.10
2023-12-28T13:20:15.305Z,48.93
2023-12-28T13:22:45.219Z,43.73
2023-12-28T13:25:14.006Z,46.03
2023-12-28T13:27:43.199Z,54.47
2023-12-28T13:30:13.264Z,48.83
2023-12-28T13:32:41.945Z,45.70
2023-12-28T13:35:10.676Z,45.63
2023-12-28T13:37:39.247Z,47.90
2023-12-28T13:40:11.041Z,49.60
2023-12-28T13:42:39.727Z,49.40
2023-12-28T13:45:09.262Z,40.93
2023-12-28T13:47:37.856Z,54.90
2023-12-28T13:50:07.762Z,52.63
2023-12-28T13:52:36.290Z,47.73
2023-12-28T13:55:05.316Z,46.70
2023-12-28T13:57:35.244Z,47.53
2023-12-28T14:00:04.060Z,46.57
2023-12-28T14:02:41.072Z,46.00
2023-12-28T14:05:10.048Z,46.60
2023-12-28T14:07:38.715Z,48.17
2023-12-28T14:10:08.431Z,53.77
2023-12-28T14:12:38.437Z,46.47
2023-12-28T14:15:08.671Z,50.00
2023-12-28T14:17:37.242Z,54.23
2023-12-28T14:20:08.184Z,49.17
2023-12-28T14:22:37.253Z,51.50
2023-12-28T14:25:06.826Z,53.43
2023-12-28T14:27:37.370Z,54.63
2023-12-28T14:30:09.526Z,48.00
2023-12-28T14:32:39.110Z,56.80
2023-12-28T14:35:09.171Z,57.77
2023-12-28T14:37:37.864Z,54.27
2023-12-28T14:40:07.883Z,53.30
2023-12-28T14:42:37.945Z,53.07
2023-12-28T14:45:07.644Z,53.50
2023-12-28T14:47:36.964Z,47.43
2023-12-28T14:50:07.724Z,53.70
2023-12-28T14:52:39.044Z,57.40
2023-12-28T14:55:08.245Z,65.00
2023-12-28T14:57:38.177Z,60.67
2023-12-28T15:00:11.352Z,57.87
2023-12-28T15:02:39.941Z,58.23
2023-12-28T15:05:11.718Z,55.60
2023-12-28T15:07:40.390Z,67.40
2023-12-28T15:10:10.500Z,67.17
2023-12-28T15:12:41.144Z,55.23
2023-12-28T15:15:11.234Z,57.33
2023-12-28T15:17:40.276Z,57.67
2023-12-28T15:20:10.629Z,53.27
2023-12-28T15:22:39.811Z,62.10
2023-12-28T15:25:08.799Z,57.80
2023-12-28T15:27:38.528Z,54.40
2023-12-28T15:30:10.233Z,54.60
2023-12-28T15:32:40.580Z,56.37
2023-12-28T15:35:10.655Z,50.80
2023-12-28T15:37:39.220Z,66.70
2023-12-28T15:40:08.969Z,51.53
2023-12-28T15:42:37.693Z,72.83
2023-12-28T15:45:08.844Z,65.73
2023-12-28T15:47:37.428Z,86.37
2023-12-28T15:50:06.939Z,58.93
2023-12-28T15:52:35.495Z,66.63
2023-12-28T15:55:04.365Z,60.67
2023-12-28T15:57:32.971Z,67.67
2023-12-28T16:00:02.241Z,55.60
2023-12-28T16:02:42.544Z,60.70
2023-12-28T16:05:11.699Z,56.30
2023-12-28T16:07:40.190Z,59.30
2023-12-28T16:10:10.200Z,61.13
2023-12-28T16:12:38.692Z,54.00
2023-12-28T16:15:09.038Z,63.20
2023-12-28T16:17:38.225Z,62.07
2023-12-28T16:20:10.128Z,64.63
2023-12-28T16:22:39.224Z,100.13
2023-12-28T16:25:08.554Z,98.20
2023-12-28T16:27:37.303Z,87.70
2023-12-28T16:30:07.033Z,69.37
2023-12-28T16:32:35.766Z,72.20
2023-12-28T16:35:04.580Z,65.70
2023-12-28T16:37:34.683Z,67.80
2023-12-28T16:40:03.287Z,68.03
2023-12-28T16:42:32.092Z,62.83
2023-12-28T16:45:01.137Z,56.30
2023-12-28T16:47:30.237Z,55.37
2023-12-28T16:49:58.910Z,68.97
2023-12-28T16:52:27.763Z,64.50
2023-12-28T16:54:57.817Z,61.90
2023-12-28T16:57:26.783Z,57.57
2023-12-28T17:00:06.911Z,71.90
2023-12-28T17:02:40.029Z,64.03
2023-12-28T17:05:11.559Z,64.70
2023-12-28T17:07:40.560Z,66.93
2023-12-28T17:10:11.874Z,62.73
2023-12-28T17:12:43.105Z,72.73
2023-12-28T17:15:13.474Z,60.60
2023-12-28T17:17:44.024Z,61.27
2023-12-28T17:20:14.265Z,64.90
2023-12-28T17:22:46.670Z,63.53
2023-12-28T17:25:29.181Z,62.27
2023-12-28T17:27:59.916Z,65.70
2023-12-28T17:30:31.035Z,70.20
2023-12-28T17:33:01.355Z,66.33
2023-12-28T17:35:30.942Z,62.30
2023-12-28T17:38:01.087Z,73.03
2023-12-28T17:40:32.189Z,64.83
2023-12-28T17:43:03.230Z,67.17
2023-12-28T17:45:41.778Z,68.17
2023-12-28T17:48:15.299Z,66.53
2023-12-28T17:50:44.286Z,65.63
2023-12-28T17:53:13.649Z,71.70
2023-12-28T17:55:43.740Z,65.03
2023-12-28T17:58:12.265Z,67.23
2023-12-28T18:00:41.076Z,77.77
2023-12-28T18:03:09.638Z,75.53
2023-12-28T18:05:38.398Z,71.77
2023-12-28T18:08:08.391Z,75.00
2023-12-28T18:10:36.892Z,69.90
2023-12-28T18:13:08.591Z,71.80
2023-12-28T18:15:38.632Z,71.80
2023-12-28T18:18:07.891Z,75.17
2023-12-28T18:20:36.462Z,69.73
2023-12-28T18:23:05.235Z,73.67
2023-12-28T18:25:33.655Z,63.37
2023-12-28T18:28:02.821Z,74.23
2023-12-28T18:30:33.091Z,71.87
2023-12-28T18:33:01.921Z,67.03
2023-12-28T18:35:31.136Z,75.17
2023-12-28T19:05:21.493Z,76.77
2023-12-28T19:07:50.255Z,67.33
2023-12-28T19:10:19.093Z,78.17
2023-12-28T19:12:48.828Z,71.97
2023-12-28T19:15:18.559Z,75.33
2023-12-28T19:17:47.558Z,78.60
2023-12-28T19:20:16.386Z,76.07
2023-12-28T19:22:46.305Z,75.20
2023-12-28T19:25:17.269Z,72.17
2023-12-28T19:27:46.160Z,87.17
2023-12-28T19:30:15.699Z,89.00
2023-12-28T19:32:44.373Z,78.03
2023-12-28T19:35:13.379Z,79.27
2023-12-28T19:37:42.046Z,72.33
2023-12-28T19:40:12.939Z,84.50
2023-12-28T19:42:41.559Z,74.47
2023-12-28T19:45:10.755Z,82.57
2023-12-28T19:47:39.351Z,79.63
2023-12-28T19:50:09.108Z,73.33
2023-12-28T19:52:37.651Z,81.00
2023-12-28T19:55:06.765Z,74.67
2023-12-28T19:57:36.824Z,80.43
2023-12-28T20:00:07.076Z,80.63
2023-12-28T20:02:35.816Z,71.83
2023-12-28T20:05:04.538Z,73.97
2023-12-28T20:07:33.198Z,75.93
2023-12-28T20:10:02.109Z,78.13
2023-12-28T20:12:30.923Z,79.93
2023-12-28T20:15:01.637Z,87.33
2023-12-28T20:17:30.299Z,83.53
2023-12-28T20:20:00.933Z,93.67
2023-12-28T20:22:30.055Z,82.63
2023-12-28T20:24:58.664Z,83.43
2023-12-28T20:27:27.171Z,83.90
2023-12-28T20:29:56.565Z,82.50
2023-12-28T20:32:27.761Z,80.47
2023-12-28T20:34:56.460Z,75.90
2023-12-28T20:37:25.321Z,75.23
2023-12-28T20:39:53.886Z,85.50
2023-12-28T20:42:22.954Z,78.80
2023-12-28T20:44:51.444Z,81.03
2023-12-28T20:47:20.133Z,79.43
2023-12-28T20:49:50.366Z,91.90
2023-12-28T20:52:19.047Z,82.40
2023-12-28T20:54:47.520Z,87.97
2023-12-28T20:57:16.184Z,81.53
2023-12-28T20:59:46.686Z,89.60
2023-12-28T21:02:15.416Z,85.63
2023-12-28T21:04:44.024Z,94.53
2023-12-28T21:07:14.226Z,91.40
2023-12-28T21:09:43.453Z,86.30
2023-12-28T21:12:13.652Z,89.03
2023-12-28T21:14:42.168Z,92.23
2023-12-28T21:17:12.095Z,96.27
2023-12-28T21:19:47.212Z,103.30
2023-12-28T21:22:19.065Z,85.60
2023-12-28T21:24:47.696Z,92.03
2023-12-28T21:27:16.480Z,88.93
2023-12-28T21:29:45.019Z,98.20
2023-12-28T21:32:13.979Z,91.17
2023-12-28T21:34:43.405Z,94.77
2023-12-28T21:37:12.841Z,87.23
2023-12-28T21:39:43.876Z,91.60
2023-12-28T21:42:12.564Z,85.10
2023-12-28T21:44:41.113Z,94.90
2023-12-28T21:47:15.308Z,98.20
2023-12-28T21:49:44.444Z,87.50
2023-12-28T21:52:15.778Z,91.20
2023-12-28T21:54:45.970Z,90.10
2023-12-28T21:57:14.622Z,93.57
2023-12-28T21:59:43.045Z,87.87
2023-12-28T22:02:11.689Z,93.60
2023-12-28T22:04:40.640Z,93.97
2023-12-28T22:07:10.925Z,90.90
2023-12-28T22:09:40.224Z,89.07
2023-12-28T22:12:10.621Z,95.97
2023-12-28T22:14:39.400Z,90.47
2023-12-28T22:17:07.966Z,84.20
2023-12-28T22:19:36.498Z,90.73
2023-12-28T22:22:05.602Z,82.40
2023-12-28T22:24:34.187Z,85.30
2023-12-28T22:27:02.946Z,90.93
2023-12-28T22:29:32.920Z,87.70
2023-12-28T22:32:01.697Z,89.03
2023-12-28T22:34:30.603Z,88.40
2023-12-28T22:36:59.220Z,93.13
2023-12-28T22:39:28.416Z,98.23
2023-12-28T22:41:56.970Z,95.97
2023-12-28T22:44:25.482Z,91.10
2023-12-28T22:46:55.392Z,91.07
2023-12-28T22:49:24.142Z,92.63
2023-12-28T22:51:52.778Z,89.37
2023-12-28T22:54:20.450Z,93.53
2023-12-28T22:56:49.582Z,92.23
2023-12-28T22:59:18.536Z,96.73
2023-12-28T23:01:47.025Z,102.90
2023-12-28T23:04:17.081Z,105.93
2023-12-28T23:06:46.003Z,98.53
2023-12-28T23:09:15.020Z,90.93
2023-12-28T23:11:43.554Z,92.03
2023-12-28T23:14:12.126Z,86.30
2023-12-28T23:16:40.638Z,98.07
2023-12-28T23:19:09.423Z,97.37
2023-12-28T23:21:39.502Z,94.27
2023-12-28T23:24:08.762Z,88.80
2023-12-28T23:26:37.191Z,91.40
2023-12-28T23:29:05.710Z,90.50
2023-12-28T23:31:34.224Z,90.73
2023-12-28T23:34:06.749Z,98.03
2023-12-28T23:36:39.445Z,93.73
2023-12-28T23:39:10.093Z,100.00
2023-12-28T23:41:38.675Z,90.77
2023-12-28T23:44:07.153Z,93.70
2023-12-28T23:46:39.452Z,87.77
2023-12-28T23:49:08.122Z,87.10
2023-12-28T23:51:38.258Z,85.93
2023-12-28T23:54:06.992Z,86.40
2023-12-28T23:56:36.049Z,82.70
2023-12-28T23:59:04.682Z,83.70
